sensor_id;sensor_type;location;lat;lon;timestamp;P1;durP1;ratioP1;P2;durP2;ratioP2
14118;SDS011;7138;49.246;9.100;2022-12-29T00:01:09;5.80;;;2.13;;
14118;SDS011;7138;49.246;9.100;2022-12-29T00:03:35;3.88;;;1.80;;
14118;SDS011;7138;49.246;9.100;2022-12-29T00:06:01;3.95;;;1.75;;
14118;SDS011;7138;49.246;9.100;2022-12-29T00:08:27;4.28;;;2.00;;
14118;SDS011;7138;49.246;9.100;2022-12-29T00:11:05;3.42;;;1.58;;
14118;SDS011;7138;49.246;9.100;2022-12-29T00:13:32;3.85;;;1.60;;
14118;SDS011;7138;49.246;9.100;2022-12-29T00:16:16;4.25;;;1.45;;
14118;SDS011;7138;49.246;9.100;2022-12-29T00:18:42;6.45;;;2.00;;
14118;SDS011;7138;49.246;9.100;2022-12-29T00:21:08;3.65;;;1.80;;
14118;SDS011;7138;49.246;9.100;2022-12-29T00:23:57;5.30;;;1.67;;
14118;SDS011;7138;49.246;9.100;2022-12-29T00:26:55;3.10;;;1.45;;
14118;SDS011;7138;49.246;9.100;2022-12-29T00:29:51;3.95;;;1.55;;
14118;SDS011;7138;49.246;9.100;2022-12-29T00:32:36;5.47;;;1.55;;
14118;SDS011;7138;49.246;9.100;2022-12-29T00:35:23;6.75;;;1.52;;
14118;SDS011;7138;49.246;9.100;2022-12-29T00:37:52;4.07;;;1.67;;
14118;SDS011;7138;49.246;9.100;2022-12-29T00:40:40;4.38;;;1.90;;
14118;SDS011;7138;49.246;9.100;2022-12-29T00:43:26;4.28;;;1.95;;
14118;SDS011;7138;49.246;9.100;2022-12-29T00:46:11;6.00;;;1.90;;
14118;SDS011;7138;49.246;9.100;2022-12-29T00:48:37;6.20;;;1.95;;
14118;SDS011;7138;49.246;9.100;2022-12-29T00:51:21;6.75;;;2.22;;
14118;SDS011;7138;49.246;9.100;2022-12-29T00:53:47;4.32;;;1.90;;
14118;SDS011;7138;49.246;9.100;2022-12-29T00:56:13;6.30;;;1.83;;
14118;SDS011;7138;49.246;9.100;2022-12-29T00:58:40;3.63;;;1.75;;
14118;SDS011;7138;49.246;9.100;2022-12-29T01:01:06;4.45;;;2.10;;
14118;SDS011;7138;49.246;9.100;2022-12-29T01:03:34;4.53;;;1.83;;
14118;SDS011;7138;49.246;9.100;2022-12-29T01:06:02;5.25;;;2.20;;
14118;SDS011;7138;49.246;9.100;2022-12-29T01:08:30;3.80;;;2.10;;
14118;SDS011;7138;49.246;9.100;2022-12-29T01:10:59;5.78;;;2.33;;
14118;SDS011;7138;49.246;9.100;2022-12-29T01:13:26;5.07;;;2.33;;
14118;SDS011;7138;49.246;9.100;2022-12-29T01:15:53;5.78;;;2.47;;
14118;SDS011;7138;49.246;9.100;2022-12-29T01:18:20;4.28;;;2.03;;
14118;SDS011;7138;49.246;9.100;2022-12-29T01:20:47;7.22;;;3.13;;
14118;SDS011;7138;49.246;9.100;2022-12-29T01:23:13;5.47;;;1.58;;
14118;SDS011;7138;49.246;9.100;2022-12-29T01:25:39;2.90;;;1.30;;
14118;SDS011;7138;49.246;9.100;2022-12-29T01:28:05;5.10;;;1.30;;
14118;SDS011;7138;49.246;9.100;2022-12-29T01:30:33;4.95;;;1.10;;
14118;SDS011;7138;49.246;9.100;2022-12-29T01:33:00;4.68;;;1.10;;
14118;SDS011;7138;49.246;9.100;2022-12-29T01:35:26;6.05;;;1.30;;
14118;SDS011;7138;49.246;9.100;2022-12-29T01:37:52;4.22;;;1.40;;
14118;SDS011;7138;49.246;9.100;2022-12-29T01:40:18;4.45;;;1.23;;
14118;SDS011;7138;49.246;9.100;2022-12-29T01:42:44;3.75;;;1.08;;
14118;SDS011;7138;49.246;9.100;2022-12-29T01:45:11;7.32;;;1.27;;
14118;SDS011;7138;49.246;9.100;2022-12-29T01:47:39;5.55;;;1.33;;
14118;SDS011;7138;49.246;9.100;2022-12-29T01:50:11;6.38;;;1.20;;
14118;SDS011;7138;49.246;9.100;2022-12-29T01:52:42;4.03;;;1.30;;
14118;SDS011;7138;49.246;9.100;2022-12-29T01:55:16;3.15;;;1.10;;
14118;SDS011;7138;49.246;9.100;2022-12-29T01:57:44;2.90;;;1.10;;
14118;SDS011;7138;49.246;9.100;2022-12-29T02:00:16;4.80;;;1.20;;
14118;SDS011;7138;49.246;9.100;2022-12-29T02:02:42;6.20;;;1.20;;
14118;SDS011;7138;49.246;9.100;2022-12-29T02:05:21;6.47;;;1.67;;
14118;SDS011;7138;49.246;9.100;2022-12-29T02:07:54;3.85;;;1.40;;
14118;SDS011;7138;49.246;9.100;2022-12-29T02:10:20;5.57;;;1.42;;
14118;SDS011;7138;49.246;9.100;2022-12-29T02:12:49;7.50;;;1.30;;
14118;SDS011;7138;49.246;9.100;2022-12-29T02:15:16;7.28;;;1.52;;
14118;SDS011;7138;49.246;9.100;2022-12-29T02:17:53;5.72;;;1.50;;
14118;SDS011;7138;49.246;9.100;2022-12-29T02:20:45;3.20;;;1.15;;
14118;SDS011;7138;49.246;9.100;2022-12-29T02:24:00;4.28;;;1.50;;
14118;SDS011;7138;49.246;9.100;2022-12-29T02:27:09;4.05;;;1.20;;
14118;SDS011;7138;49.246;9.100;2022-12-29T02:30:08;6.20;;;1.25;;
14118;SDS011;7138;49.246;9.100;2022-12-29T02:32:56;3.97;;;1.30;;
14118;SDS011;7138;49.246;9.100;2022-12-29T02:35:30;5.82;;;1.38;;
14118;SDS011;7138;49.246;9.100;2022-12-29T02:38:06;5.03;;;1.52;;
14118;SDS011;7138;49.246;9.100;2022-12-29T02:40:46;3.67;;;1.20;;
14118;SDS011;7138;49.246;9.100;2022-12-29T02:43:22;3.47;;;1.45;;
14118;SDS011;7138;49.246;9.100;2022-12-29T02:45:58;2.72;;;1.30;;
14118;SDS011;7138;49.246;9.100;2022-12-29T02:48:34;3.80;;;1.10;;
14118;SDS011;7138;49.246;9.100;2022-12-29T02:51:09;3.33;;;1.20;;
14118;SDS011;7138;49.246;9.100;2022-12-29T02:53:42;4.40;;;1.20;;
14118;SDS011;7138;49.246;9.100;2022-12-29T02:56:28;5.50;;;1.42;;
14118;SDS011;7138;49.246;9.100;2022-12-29T02:58:55;4.10;;;1.20;;
14118;SDS011;7138;49.246;9.100;2022-12-29T03:01:24;4.18;;;1.10;;
14118;SDS011;7138;49.246;9.100;2022-12-29T03:04:26;4.43;;;1.20;;
14118;SDS011;7138;49.246;9.100;2022-12-29T03:07:04;5.85;;;1.35;;
14118;SDS011;7138;49.246;9.100;2022-12-29T03:09:41;3.75;;;1.10;;
14118;SDS011;7138;49.246;9.100;2022-12-29T03:12:23;4.40;;;1.17;;
14118;SDS011;7138;49.246;9.100;2022-12-29T03:15:16;5.70;;;1.23;;
14118;SDS011;7138;49.246;9.100;2022-12-29T03:18:10;4.63;;;1.15;;
14118;SDS011;7138;49.246;9.100;2022-12-29T03:20:43;3.47;;;1.20;;
14118;SDS011;7138;49.246;9.100;2022-12-29T03:23:18;5.30;;;1.00;;
14118;SDS011;7138;49.246;9.100;2022-12-29T03:25:47;4.95;;;1.38;;
14118;SDS011;7138;49.246;9.100;2022-12-29T03:28:17;5.03;;;1.10;;
14118;SDS011;7138;49.246;9.100;2022-12-29T03:30:50;6.57;;;1.45;;
14118;SDS011;7138;49.246;9.100;2022-12-29T03:33:20;4.60;;;1.13;;
14118;SDS011;7138;49.246;9.100;2022-12-29T03:35:51;3.40;;;1.20;;
14118;SDS011;7138;49.246;9.100;2022-12-29T03:38:24;5.03;;;0.98;;
14118;SDS011;7138;49.246;9.100;2022-12-29T03:40:59;3.35;;;1.23;;
14118;SDS011;7138;49.246;9.100;2022-12-29T03:43:31;2.42;;;0.95;;
14118;SDS011;7138;49.246;9.100;2022-12-29T03:45:58;2.97;;;1.02;;
14118;SDS011;7138;49.246;9.100;2022-12-29T03:48:25;4.97;;;1.88;;
14118;SDS011;7138;49.246;9.100;2022-12-29T03:50:51;4.68;;;1.13;;
14118;SDS011;7138;49.246;9.100;2022-12-29T03:53:17;4.65;;;1.58;;
14118;SDS011;7138;49.246;9.100;2022-12-29T03:55:43;3.17;;;0.90;;
14118;SDS011;7138;49.246;9.100;2022-12-29T03:58:09;4.15;;;1.00;;
14118;SDS011;7138;49.246;9.100;2022-12-29T04:00:35;3.95;;;0.82;;
14118;SDS011;7138;49.246;9.100;2022-12-29T04:03:00;7.03;;;1.98;;
14118;SDS011;7138;49.246;9.100;2022-12-29T04:05:28;3.47;;;1.13;;
14118;SDS011;7138;49.246;9.100;2022-12-29T04:07:53;3.00;;;0.80;;
14118;SDS011;7138;49.246;9.100;2022-12-29T04:10:19;4.28;;;1.17;;
14118;SDS011;7138;49.246;9.100;2022-12-29T04:12:45;2.33;;;0.90;;
14118;SDS011;7138;49.246;9.100;2022-12-29T04:15:11;4.35;;;1.10;;
14118;SDS011;7138;49.246;9.100;2022-12-29T04:17:37;4.55;;;0.93;;
14118;SDS011;7138;49.246;9.100;2022-12-29T04:20:04;4.65;;;1.00;;
14118;SDS011;7138;49.246;9.100;2022-12-29T04:22:50;3.78;;;0.80;;
14118;SDS011;7138;49.246;9.100;2022-12-29T04:25:24;5.20;;;1.50;;
14118;SDS011;7138;49.246;9.100;2022-12-29T04:27:50;3.80;;;0.98;;
14118;SDS011;7138;49.246;9.100;2022-12-29T04:30:15;2.97;;;0.88;;
14118;SDS011;7138;49.246;9.100;2022-12-29T04:32:41;3.03;;;1.20;;
14118;SDS011;7138;49.246;9.100;2022-12-29T04:35:07;3.45;;;0.95;;
14118;SDS011;7138;49.246;9.100;2022-12-29T04:37:36;4.32;;;0.90;;
14118;SDS011;7138;49.246;9.100;2022-12-29T04:40:04;4.25;;;0.82;;
14118;SDS011;7138;49.246;9.100;2022-12-29T04:42:31;3.03;;;1.00;;
14118;SDS011;7138;49.246;9.100;2022-12-29T04:44:57;3.78;;;1.00;;
14118;SDS011;7138;49.246;9.100;2022-12-29T04:47:23;2.72;;;0.90;;
14118;SDS011;7138;49.246;9.100;2022-12-29T04:49:49;3.30;;;0.70;;
14118;SDS011;7138;49.246;9.100;2022-12-29T04:52:14;4.38;;;0.80;;
14118;SDS011;7138;49.246;9.100;2022-12-29T04:54:40;2.72;;;0.80;;
14118;SDS011;7138;49.246;9.100;2022-12-29T04:57:07;3.28;;;0.88;;
14118;SDS011;7138;49.246;9.100;2022-12-29T04:59:33;2.20;;;0.60;;
14118;SDS011;7138;49.246;9.100;2022-12-29T05:01:59;3.20;;;0.80;;
14118;SDS011;7138;49.246;9.100;2022-12-29T05:04:25;2.50;;;0.93;;
14118;SDS011;7138;49.246;9.100;2022-12-29T05:06:51;2.35;;;0.70;;
14118;SDS011;7138;49.246;9.100;2022-12-29T05:09:17;3.22;;;1.10;;
14118;SDS011;7138;49.246;9.100;2022-12-29T05:11:42;2.28;;;0.70;;
14118;SDS011;7138;49.246;9.100;2022-12-29T05:14:09;2.42;;;0.70;;
14118;SDS011;7138;49.246;9.100;2022-12-29T05:16:35;2.72;;;0.85;;
14118;SDS011;7138;49.246;9.100;2022-12-29T05:19:01;4.43;;;0.85;;
14118;SDS011;7138;49.246;9.100;2022-12-29T05:21:27;3.63;;;0.70;;
14118;SDS011;7138;49.246;9.100;2022-12-29T05:23:53;1.58;;;0.60;;
14118;SDS011;7138;49.246;9.100;2022-12-29T05:26:19;1.98;;;0.63;;
14118;SDS011;7138;49.246;9.100;2022-12-29T05:28:45;4.47;;;0.90;;
14118;SDS011;7138;49.246;9.100;2022-12-29T05:31:12;2.30;;;0.80;;
14118;SDS011;7138;49.246;9.100;2022-12-29T05:33:38;2.22;;;0.75;;
14118;SDS011;7138;49.246;9.100;2022-12-29T05:36:04;3.35;;;0.90;;
14118;SDS011;7138;49.246;9.100;2022-12-29T05:38:31;3.00;;;0.77;;
14118;SDS011;7138;49.246;9.100;2022-12-29T05:40:57;2.72;;;0.60;;
14118;SDS011;7138;49.246;9.100;2022-12-29T05:43:23;2.25;;;0.60;;
14118;SDS011;7138;49.246;9.100;2022-12-29T05:45:49;3.63;;;0.70;;
14118;SDS011;7138;49.246;9.100;2022-12-29T05:48:16;1.85;;;0.55;;
14118;SDS011;7138;49.246;9.100;2022-12-29T05:50:42;3.17;;;0.75;;
14118;SDS011;7138;49.246;9.100;2022-12-29T05:53:07;2.25;;;0.75;;
14118;SDS011;7138;49.246;9.100;2022-12-29T05:55:33;2.50;;;0.70;;
14118;SDS011;7138;49.246;9.100;2022-12-29T05:57:59;3.25;;;0.70;;
14118;SDS011;7138;49.246;9.100;2022-12-29T06:00:25;2.97;;;0.65;;
14118;SDS011;7138;49.246;9.100;2022-12-29T06:02:51;2.83;;;0.90;;
14118;SDS011;7138;49.246;9.100;2022-12-29T06:05:18;2.63;;;0.80;;
14118;SDS011;7138;49.246;9.100;2022-12-29T06:07:44;3.22;;;1.00;;
14118;SDS011;7138;49.246;9.100;2022-12-29T06:10:10;4.22;;;0.90;;
14118;SDS011;7138;49.246;9.100;2022-12-29T06:12:36;3.83;;;1.00;;
14118;SDS011;7138;49.246;9.100;2022-12-29T06:15:02;2.65;;;0.80;;
14118;SDS011;7138;49.246;9.100;2022-12-29T06:17:28;2.78;;;0.80;;
14118;SDS011;7138;49.246;9.100;2022-12-29T06:19:54;3.92;;;0.90;;
14118;SDS011;7138;49.246;9.100;2022-12-29T06:22:21;3.30;;;0.82;;
14118;SDS011;7138;49.246;9.100;2022-12-29T06:24:47;4.05;;;0.93;;
14118;SDS011;7138;49.246;9.100;2022-12-29T06:27:13;2.72;;;0.80;;
14118;SDS011;7138;49.246;9.100;2022-12-29T06:29:39;5.22;;;0.82;;
14118;SDS011;7138;49.246;9.100;2022-12-29T06:32:05;3.97;;;0.82;;
14118;SDS011;7138;49.246;9.100;2022-12-29T06:34:31;2.53;;;0.70;;
14118;SDS011;7138;49.246;9.100;2022-12-29T06:36:57;3.50;;;0.75;;
14118;SDS011;7138;49.246;9.100;2022-12-29T06:39:24;3.28;;;0.90;;
14118;SDS011;7138;49.246;9.100;2022-12-29T06:41:51;3.00;;;0.80;;
14118;SDS011;7138;49.246;9.100;2022-12-29T06:44:17;4.53;;;0.82;;
14118;SDS011;7138;49.246;9.100;2022-12-29T06:46:43;3.03;;;0.80;;
14118;SDS011;7138;49.246;9.100;2022-12-29T06:49:09;3.42;;;1.02;;
14118;SDS011;7138;49.246;9.100;2022-12-29T06:51:35;4.35;;;1.10;;
14118;SDS011;7138;49.246;9.100;2022-12-29T06:54:01;3.33;;;1.20;;
14118;SDS011;7138;49.246;9.100;2022-12-29T06:56:28;3.30;;;1.10;;
14118;SDS011;7138;49.246;9.100;2022-12-29T06:58:54;2.83;;;0.60;;
14118;SDS011;7138;49.246;9.100;2022-12-29T07:01:20;3.33;;;0.90;;
14118;SDS011;7138;49.246;9.100;2022-12-29T07:03:45;3.65;;;0.82;;
14118;SDS011;7138;49.246;9.100;2022-12-29T07:06:12;3.42;;;1.00;;
14118;SDS011;7138;49.246;9.100;2022-12-29T07:08:37;3.50;;;0.90;;
14118;SDS011;7138;49.246;9.100;2022-12-29T07:11:03;3.65;;;0.82;;
14118;SDS011;7138;49.246;9.100;2022-12-29T07:13:31;3.65;;;0.70;;
14118;SDS011;7138;49.246;9.100;2022-12-29T07:15:57;2.30;;;0.70;;
14118;SDS011;7138;49.246;9.100;2022-12-29T07:18:23;7.15;;;0.98;;
14118;SDS011;7138;49.246;9.100;2022-12-29T07:20:49;3.33;;;1.25;;
14118;SDS011;7138;49.246;9.100;2022-12-29T07:23:14;3.63;;;1.02;;
14118;SDS011;7138;49.246;9.100;2022-12-29T07:25:40;3.30;;;0.98;;
14118;SDS011;7138;49.246;9.100;2022-12-29T07:28:06;2.45;;;1.08;;
14118;SDS011;7138;49.246;9.100;2022-12-29T07:30:36;3.85;;;1.10;;
14118;SDS011;7138;49.246;9.100;2022-12-29T07:33:03;2.45;;;0.90;;
14118;SDS011;7138;49.246;9.100;2022-12-29T07:35:29;2.75;;;0.88;;
14118;SDS011;7138;49.246;9.100;2022-12-29T07:37:55;3.05;;;0.88;;
14118;SDS011;7138;49.246;9.100;2022-12-29T07:40:20;3.47;;;0.90;;
14118;SDS011;7138;49.246;9.100;2022-12-29T07:42:46;3.72;;;1.13;;
14118;SDS011;7138;49.246;9.100;2022-12-29T07:45:12;3.42;;;0.80;;
14118;SDS011;7138;49.246;9.100;2022-12-29T07:47:39;4.85;;;1.00;;
14118;SDS011;7138;49.246;9.100;2022-12-29T07:50:05;3.78;;;0.88;;
14118;SDS011;7138;49.246;9.100;2022-12-29T07:52:31;3.25;;;1.00;;
14118;SDS011;7138;49.246;9.100;2022-12-29T07:54:57;3.65;;;1.20;;
14118;SDS011;7138;49.246;9.100;2022-12-29T07:57:23;5.22;;;1.50;;
14118;SDS011;7138;49.246;9.100;2022-12-29T07:59:49;6.43;;;2.30;;
14118;SDS011;7138;49.246;9.100;2022-12-29T08:02:15;6.18;;;2.55;;
14118;SDS011;7138;49.246;9.100;2022-12-29T08:04:42;6.65;;;2.70;;
14118;SDS011;7138;49.246;9.100;2022-12-29T08:07:07;6.68;;;2.78;;
14118;SDS011;7138;49.246;9.100;2022-12-29T08:09:33;7.97;;;3.10;;
14118;SDS011;7138;49.246;9.100;2022-12-29T08:11:59;27.20;;;8.50;;
14118;SDS011;7138;49.246;9.100;2022-12-29T08:14:25;34.22;;;10.93;;
14118;SDS011;7138;49.246;9.100;2022-12-29T08:16:51;19.88;;;7.03;;
14118;SDS011;7138;49.246;9.100;2022-12-29T08:19:16;6.75;;;2.97;;
14118;SDS011;7138;49.246;9.100;2022-12-29T08:21:44;13.77;;;3.50;;
14118;SDS011;7138;49.246;9.100;2022-12-29T08:24:09;17.40;;;4.45;;
14118;SDS011;7138;49.246;9.100;2022-12-29T08:26:35;10.32;;;2.80;;
14118;SDS011;7138;49.246;9.100;2022-12-29T08:29:01;5.05;;;1.48;;
14118;SDS011;7138;49.246;9.100;2022-12-29T08:31:27;5.40;;;1.42;;
14118;SDS011;7138;49.246;9.100;2022-12-29T08:33:53;6.25;;;1.25;;
14118;SDS011;7138;49.246;9.100;2022-12-29T08:36:19;3.65;;;1.20;;
14118;SDS011;7138;49.246;9.100;2022-12-29T08:38:46;4.60;;;1.52;;
14118;SDS011;7138;49.246;9.100;2022-12-29T08:41:12;5.95;;;1.50;;
14118;SDS011;7138;49.246;9.100;2022-12-29T08:43:37;5.15;;;1.20;;
14118;SDS011;7138;49.246;9.100;2022-12-29T08:46:03;4.53;;;1.10;;
14118;SDS011;7138;49.246;9.100;2022-12-29T08:48:29;4.30;;;1.13;;
14118;SDS011;7138;49.246;9.100;2022-12-29T08:50:55;1.95;;;0.73;;
14118;SDS011;7138;49.246;9.100;2022-12-29T08:53:21;4.50;;;1.20;;
14118;SDS011;7138;49.246;9.100;2022-12-29T08:55:54;5.97;;;1.10;;
14118;SDS011;7138;49.246;9.100;2022-12-29T08:58:22;3.85;;;1.00;;
14118;SDS011;7138;49.246;9.100;2022-12-29T09:00:48;5.00;;;1.20;;
14118;SDS011;7138;49.246;9.100;2022-12-29T09:03:13;5.43;;;0.93;;
14118;SDS011;7138;49.246;9.100;2022-12-29T09:05:39;4.40;;;1.60;;
14118;SDS011;7138;49.246;9.100;2022-12-29T09:08:05;4.00;;;1.02;;
14118;SDS011;7138;49.246;9.100;2022-12-29T09:10:31;4.05;;;1.15;;
14118;SDS011;7138;49.246;9.100;2022-12-29T09:12:58;3.55;;;1.15;;
14118;SDS011;7138;49.246;9.100;2022-12-29T09:15:24;4.05;;;1.20;;
14118;SDS011;7138;49.246;9.100;2022-12-29T09:17:50;3.22;;;1.05;;
14118;SDS011;7138;49.246;9.100;2022-12-29T09:20:16;4.53;;;1.10;;
14118;SDS011;7138;49.246;9.100;2022-12-29T09:22:44;3.97;;;0.90;;
14118;SDS011;7138;49.246;9.100;2022-12-29T09:25:11;4.28;;;1.30;;
14118;SDS011;7138;49.246;9.100;2022-12-29T09:27:38;4.05;;;1.10;;
14118;SDS011;7138;49.246;9.100;2022-12-29T09:30:07;5.60;;;1.20;;
14118;SDS011;7138;49.246;9.100;2022-12-29T09:32:36;3.20;;;1.00;;
14118;SDS011;7138;49.246;9.100;2022-12-29T09:35:03;3.08;;;1.05;;
14118;SDS011;7138;49.246;9.100;2022-12-29T09:37:29;3.00;;;0.98;;
14118;SDS011;7138;49.246;9.100;2022-12-29T09:39:55;5.35;;;1.02;;
14118;SDS011;7138;49.246;9.100;2022-12-29T09:42:22;3.75;;;1.17;;
14118;SDS011;7138;49.246;9.100;2022-12-29T09:45:00;5.93;;;1.40;;
14118;SDS011;7138;49.246;9.100;2022-12-29T09:47:38;2.70;;;1.05;;
14118;SDS011;7138;49.246;9.100;2022-12-29T09:50:08;3.38;;;1.00;;
14118;SDS011;7138;49.246;9.100;2022-12-29T09:55:16;3.47;;;1.17;;
14118;SDS011;7138;49.246;9.100;2022-12-29T09:57:48;3.00;;;1.10;;
14118;SDS011;7138;49.246;9.100;2022-12-29T10:00:26;3.42;;;1.10;;
14118;SDS011;7138;49.246;9.100;2022-12-29T10:03:02;6.10;;;1.30;;
14118;SDS011;7138;49.246;9.100;2022-12-29T10:05:42;5.40;;;1.20;;
14118;SDS011;7138;49.246;9.100;2022-12-29T10:08:20;4.10;;;1.13;;
14118;SDS011;7138;49.246;9.100;2022-12-29T10:11:01;3.33;;;1.20;;
14118;SDS011;7138;49.246;9.100;2022-12-29T10:13:43;4.22;;;1.40;;
14118;SDS011;7138;49.246;9.100;2022-12-29T10:16:36;3.38;;;1.08;;
14118;SDS011;7138;49.246;9.100;2022-12-29T10:19:17;3.85;;;1.20;;
14118;SDS011;7138;49.246;9.100;2022-12-29T10:22:11;3.20;;;1.40;;
14118;SDS011;7138;49.246;9.100;2022-12-29T10:24:57;3.35;;;1.10;;
14118;SDS011;7138;49.246;9.100;2022-12-29T10:27:27;3.42;;;1.30;;
14118;SDS011;7138;49.246;9.100;2022-12-29T10:29:58;3.58;;;1.20;;
14118;SDS011;7138;49.246;9.100;2022-12-29T10:32:29;3.73;;;1.10;;
14118;SDS011;7138;49.246;9.100;2022-12-29T10:35:03;4.70;;;1.40;;
14118;SDS011;7138;49.246;9.100;2022-12-29T10:37:40;4.07;;;1.40;;
14118;SDS011;7138;49.246;9.100;2022-12-29T10:40:14;4.78;;;1.35;;
14118;SDS011;7138;49.246;9.100;2022-12-29T10:42:50;5.13;;;1.80;;
14118;SDS011;7138;49.246;9.100;2022-12-29T10:45:20;3.85;;;1.35;;
14118;SDS011;7138;49.246;9.100;2022-12-29T10:47:53;4.53;;;1.40;;
14118;SDS011;7138;49.246;9.100;2022-12-29T10:50:25;3.35;;;1.42;;
14118;SDS011;7138;49.246;9.100;2022-12-29T10:52:52;4.57;;;1.27;;
14118;SDS011;7138;49.246;9.100;2022-12-29T10:55:22;4.32;;;1.30;;
14118;SDS011;7138;49.246;9.100;2022-12-29T10:57:55;5.57;;;1.40;;
14118;SDS011;7138;49.246;9.100;2022-12-29T11:00:29;3.47;;;1.30;;
14118;SDS011;7138;49.246;9.100;2022-12-29T11:03:02;4.25;;;1.50;;
14118;SDS011;7138;49.246;9.100;2022-12-29T11:05:56;3.53;;;1.30;;
14118;SDS011;7138;49.246;9.100;2022-12-29T11:08:30;3.92;;;1.30;;
14118;SDS011;7138;49.246;9.100;2022-12-29T11:11:02;5.63;;;1.20;;
14118;SDS011;7138;49.246;9.100;2022-12-29T11:13:31;2.97;;;1.30;;
14118;SDS011;7138;49.246;9.100;2022-12-29T11:15:59;5.83;;;2.33;;
14118;SDS011;7138;49.246;9.100;2022-12-29T11:18:31;4.80;;;1.60;;
14118;SDS011;7138;49.246;9.100;2022-12-29T11:21:03;10.18;;;1.63;;
14118;SDS011;7138;49.246;9.100;2022-12-29T11:23:48;5.20;;;1.70;;
14118;SDS011;7138;49.246;9.100;2022-12-29T11:26:22;5.28;;;1.70;;
14118;SDS011;7138;49.246;9.100;2022-12-29T11:29:04;8.88;;;1.88;;
14118;SDS011;7138;49.246;9.100;2022-12-29T11:31:48;5.97;;;2.08;;
14118;SDS011;7138;49.246;9.100;2022-12-29T11:34:19;4.28;;;1.58;;
14118;SDS011;7138;49.246;9.100;2022-12-29T11:36:47;5.35;;;1.85;;
14118;SDS011;7138;49.246;9.100;2022-12-29T11:39:23;4.15;;;1.52;;
14118;SDS011;7138;49.246;9.100;2022-12-29T11:41:57;6.82;;;1.70;;
14118;SDS011;7138;49.246;9.100;2022-12-29T11:44:25;4.80;;;1.98;;
14118;SDS011;7138;49.246;9.100;2022-12-29T11:46:52;6.00;;;2.25;;
14118;SDS011;7138;49.246;9.100;2022-12-29T11:49:21;5.07;;;1.65;;
14118;SDS011;7138;49.246;9.100;2022-12-29T11:51:51;5.93;;;1.80;;
14118;SDS011;7138;49.246;9.100;2022-12-29T11:54:22;5.43;;;1.50;;
14118;SDS011;7138;49.246;9.100;2022-12-29T11:56:52;6.00;;;1.35;;
14118;SDS011;7138;49.246;9.100;2022-12-29T11:59:34;4.80;;;1.95;;
14118;SDS011;7138;49.246;9.100;2022-12-29T12:05:01;6.63;;;1.80;;
14118;SDS011;7138;49.246;9.100;2022-12-29T12:07:40;5.80;;;1.85;;
14118;SDS011;7138;49.246;9.100;2022-12-29T12:10:17;6.00;;;1.75;;
14118;SDS011;7138;49.246;9.100;2022-12-29T12:12:51;4.50;;;1.67;;
14118;SDS011;7138;49.246;9.100;2022-12-29T12:15:25;7.45;;;1.83;;
14118;SDS011;7138;49.246;9.100;2022-12-29T12:18:02;3.70;;;1.50;;
14118;SDS011;7138;49.246;9.100;2022-12-29T12:20:44;4.68;;;1.50;;
14118;SDS011;7138;49.246;9.100;2022-12-29T12:23:18;6.70;;;2.72;;
14118;SDS011;7138;49.246;9.100;2022-12-29T12:26:02;5.63;;;1.60;;
14118;SDS011;7138;49.246;9.100;2022-12-29T12:28:37;3.72;;;1.50;;
14118;SDS011;7138;49.246;9.100;2022-12-29T12:31:16;4.97;;;1.52;;
14118;SDS011;7138;49.246;9.100;2022-12-29T12:33:53;7.13;;;1.80;;
14118;SDS011;7138;49.246;9.100;2022-12-29T12:36:42;3.20;;;1.48;;
14118;SDS011;7138;49.246;9.100;2022-12-29T12:39:26;4.10;;;1.50;;
14118;SDS011;7138;49.246;9.100;2022-12-29T12:44:48;5.57;;;1.50;;
14118;SDS011;7138;49.246;9.100;2022-12-29T12:47:43;5.68;;;1.30;;
14118;SDS011;7138;49.246;9.100;2022-12-29T12:50:27;5.13;;;1.42;;
14118;SDS011;7138;49.246;9.100;2022-12-29T12:53:28;4.75;;;1.38;;
14118;SDS011;7138;49.246;9.100;2022-12-29T12:56:19;4.25;;;1.40;;
14118;SDS011;7138;49.246;9.100;2022-12-29T12:59:10;4.45;;;1.80;;
14118;SDS011;7138;49.246;9.100;2022-12-29T13:01:57;4.53;;;1.40;;
14118;SDS011;7138;49.246;9.100;2022-12-29T13:04:40;5.07;;;1.58;;
14118;SDS011;7138;49.246;9.100;2022-12-29T13:07:20;3.65;;;1.50;;
14118;SDS011;7138;49.246;9.100;2022-12-29T13:10:19;4.38;;;1.20;;
14118;SDS011;7138;49.246;9.100;2022-12-29T13:13:12;3.35;;;1.08;;
14118;SDS011;7138;49.246;9.100;2022-12-29T13:16:12;4.68;;;1.20;;
14118;SDS011;7138;49.246;9.100;2022-12-29T13:18:52;3.17;;;1.10;;
14118;SDS011;7138;49.246;9.100;2022-12-29T13:21:33;3.53;;;1.00;;
14118;SDS011;7138;49.246;9.100;2022-12-29T13:24:15;1.88;;;0.80;;
14118;SDS011;7138;49.246;9.100;2022-12-29T13:26:53;3.78;;;0.65;;
14118;SDS011;7138;49.246;9.100;2022-12-29T13:29:30;2.45;;;0.70;;
14118;SDS011;7138;49.246;9.100;2022-12-29T13:32:10;6.75;;;0.88;;
14118;SDS011;7138;49.246;9.100;2022-12-29T13:34:56;3.35;;;0.88;;
14118;SDS011;7138;49.246;9.100;2022-12-29T13:37:45;1.98;;;0.70;;
14118;SDS011;7138;49.246;9.100;2022-12-29T13:40:18;3.70;;;0.93;;
14118;SDS011;7138;49.246;9.100;2022-12-29T13:42:51;2.83;;;0.80;;
14118;SDS011;7138;49.246;9.100;2022-12-29T13:45:20;1.95;;;0.68;;
14118;SDS011;7138;49.246;9.100;2022-12-29T13:47:51;3.35;;;0.75;;
14118;SDS011;7138;49.246;9.100;2022-12-29T13:50:24;2.90;;;0.70;;
14118;SDS011;7138;49.246;9.100;2022-12-29T13:52:55;2.22;;;0.70;;
14118;SDS011;7138;49.246;9.100;2022-12-29T13:55:37;2.95;;;0.85;;
14118;SDS011;7138;49.246;9.100;2022-12-29T13:58:17;2.50;;;0.60;;
14118;SDS011;7138;49.246;9.100;2022-12-29T14:00:54;2.50;;;0.80;;
14118;SDS011;7138;49.246;9.100;2022-12-29T14:03:36;3.45;;;0.90;;
14118;SDS011;7138;49.246;9.100;2022-12-29T14:06:18;6.30;;;0.93;;
14118;SDS011;7138;49.246;9.100;2022-12-29T14:08:48;3.50;;;1.02;;
14118;SDS011;7138;49.246;9.100;2022-12-29T14:11:17;3.03;;;1.00;;
14118;SDS011;7138;49.246;9.100;2022-12-29T14:13:51;5.05;;;1.38;;
14118;SDS011;7138;49.246;9.100;2022-12-29T14:16:28;2.85;;;1.10;;
14118;SDS011;7138;49.246;9.100;2022-12-29T14:19:03;2.80;;;1.10;;
14118;SDS011;7138;49.246;9.100;2022-12-29T14:33:16;2.75;;;1.02;;
14118;SDS011;7138;49.246;9.100;2022-12-29T14:35:43;4.13;;;1.52;;
14118;SDS011;7138;49.246;9.100;2022-12-29T14:38:16;3.55;;;1.17;;
14118;SDS011;7138;49.246;9.100;2022-12-29T14:40:46;5.28;;;1.23;;
14118;SDS011;7138;49.246;9.100;2022-12-29T14:43:16;6.10;;;1.30;;
14118;SDS011;7138;49.246;9.100;2022-12-29T14:45:53;3.80;;;1.17;;
14118;SDS011;7138;49.246;9.100;2022-12-29T14:48:31;4.55;;;1.33;;
14118;SDS011;7138;49.246;9.100;2022-12-29T14:51:16;2.67;;;0.90;;
14118;SDS011;7138;49.246;9.100;2022-12-29T14:53:55;4.63;;;1.10;;
14118;SDS011;7138;49.246;9.100;2022-12-29T14:56:24;3.60;;;0.98;;
14118;SDS011;7138;49.246;9.100;2022-12-29T14:58:54;3.67;;;1.02;;
14118;SDS011;7138;49.246;9.100;2022-12-29T15:01:28;3.38;;;0.90;;
14118;SDS011;7138;49.246;9.100;2022-12-29T15:04:12;3.72;;;1.02;;
14118;SDS011;7138;49.246;9.100;2022-12-29T15:06:43;4.47;;;1.10;;
14118;SDS011;7138;49.246;9.100;2022-12-29T15:09:12;2.53;;;0.90;;
14118;SDS011;7138;49.246;9.100;2022-12-29T15:11:51;4.13;;;1.40;;
14118;SDS011;7138;49.246;9.100;2022-12-29T15:14:33;4.00;;;1.17;;
14118;SDS011;7138;49.246;9.100;2022-12-29T15:17:10;3.45;;;0.90;;
14118;SDS011;7138;49.246;9.100;2022-12-29T15:19:50;6.03;;;1.00;;
14118;SDS011;7138;49.246;9.100;2022-12-29T15:22:15;3.40;;;1.33;;
14118;SDS011;7138;49.246;9.100;2022-12-29T15:24:42;4.93;;;1.20;;
14118;SDS011;7138;49.246;9.100;2022-12-29T15:27:10;2.95;;;0.90;;
14118;SDS011;7138;49.246;9.100;2022-12-29T15:29:42;4.10;;;1.00;;
14118;SDS011;7138;49.246;9.100;2022-12-29T15:32:15;3.33;;;1.35;;
14118;SDS011;7138;49.246;9.100;2022-12-29T15:34:48;3.38;;;1.02;;
14118;SDS011;7138;49.246;9.100;2022-12-29T15:37:19;4.50;;;1.17;;
14118;SDS011;7138;49.246;9.100;2022-12-29T15:39:47;3.45;;;1.00;;
14118;SDS011;7138;49.246;9.100;2022-12-29T15:42:23;4.80;;;1.30;;
14118;SDS011;7138;49.246;9.100;2022-12-29T15:45:16;5.72;;;1.27;;
14118;SDS011;7138;49.246;9.100;2022-12-29T15:47:44;2.92;;;0.80;;
14118;SDS011;7138;49.246;9.100;2022-12-29T15:50:22;3.75;;;1.00;;